Impacts TAF Board INFO
FOR SITUATIONAL AWARENESS. NOT TO BE USED FOR FLIGHT PLANNING PURPOSES.
IDs:

KSFO - San Francisco Intl, CA, US

Issued at 2339 UTC 22 Jun 2018
Updated at 0011 UTC 23 Jun 2018
Potential Impact None Slight Moderate High
Time2356Z 23/01Z 23/02Z 23/03Z 23/04Z 23/05Z 23/06Z 23/07Z 23/08Z 23/09Z 23/10Z 23/11Z 23/12Z 23/13Z>>
Type OBS PRVL PRVL PRVL PRVL PRVL PRVL PRVL PRVL PRVL PRVL PRVL PRVL PRVL
VIS 10 >6 >6 >6 >6 >6 >6 >6 >6 >6 >6 >6 >6 >6
CIG -- -- -- -- -- -- -- -- -- -- -- -- -- --
Cover FEW SKC SKC SKC SKC SKC SKC SKC SKC SKC SKC SKC SKC SKC
FltCat VFR VFR VFR VFR VFR VFR VFR VFR VFR VFR VFR VFR VFR VFR
WX -- -- -- -- -- -- -- -- -- -- -- -- -- --
WDir 290 280 280 280 290 290 290 290 290 290 290 290 20 20
WSpd 25 20 20 20 15 15 15 9 9 9 9 9 5 5
WGst 29 30 30 30 19 19 19 -- -- -- -- -- -- --

Raw TAF
KSFO 222339Z 2300/2406 28020G30KT P6SM SKC
  FM230400 29015G19KT P6SM SKC
  FM230700 29009KT P6SM SKC
  FM231200 02005KT P6SM SKC
  FM232200 29016G24KT P6SM SKC
  FM240400 29008KT P6SM SKC


Raw METAR
KSFO 222356Z 29025G29KT 10SM FEW200 22/10 A2984 RMK AO2 PK WND 29029/2351 SLP105 T02220100 10272 20200 56016 $
KSFO 222256Z 29020G29KT 10SM FEW200 23/10 A2986 RMK AO2 PK WND 30029/2253 SLP109 T02330100 $
KSFO 222156Z 30017KT 10SM FEW200 26/11 A2987 RMK AO2 SLP115 T02560106 $

METAR Board
Radar Display
Forecast Discussion

FOR SITUATIONAL AWARENESS. NOT TO BE USED FOR FLIGHT PLANNING PURPOSES.